snow_conditions_reporting_by_weatherlink 2020-07-31T16:03:31+00:00

Toba Valley Lodge

Date
Time
Ta 24hr
Ta Max
24hr
Ta Min
RH HS HS
Sig
Qual
Precip
Gauge
Total
Hour
Precip
mm
72hr
Sum
Precip
28day
Sum
Precip
Wind
Speed
kph
Wind
Dir
deg
Vel
3sec
Gust
Dir
3sec
Gust
Time
3sec
Gust
Batt
Volts
Logger
Intrnl
Temp
2020-08-03 12:00 19.5 19.5 14.2 89 ~ ~ 887 0.00 2 887 0 144 0 ~ ~ ~ ~
2020-08-03 13:00 20.6 20.6 14.2 87 ~ ~ 887 0.00 2 887 0 144 0 ~ ~ ~ ~
2020-08-03 14:00 21.2 21.2 14.2 85 ~ ~ 887 0.00 2 887 0 144 0 ~ ~ ~ ~
2020-08-03 15:00 21.7 21.7 14.2 83 ~ ~ 887 0.00 2 887 0 144 0 ~ ~ ~ ~
2020-08-03 16:00 21.8 21.8 14.2 82 ~ ~ 887 0.00 2 887 0 144 0 ~ ~ ~ ~
2020-08-03 17:00 21.6 21.8 14.2 85 ~ ~ 887 0.00 2 887 0 144 0 ~ ~ ~ ~
2020-08-03 18:00 19.2 21.8 14.2 89 ~ ~ 887 0.25 2 887 0 173 5 ~ ~ ~ ~
2020-08-03 19:00 19.2 21.8 14.2 91 ~ ~ 887 0.00 2 887 0 173 0 ~ ~ ~ ~
2020-08-03 20:00 18.3 21.8 14.2 91 ~ ~ 887 0.00 2 887 0 173 0 ~ ~ ~ ~
2020-08-03 21:00 17.4 21.8 14.2 90 ~ ~ 887 0.00 2 887 0 173 0 ~ ~ ~ ~
2020-08-03 22:00 16.3 21.8 14.2 92 ~ ~ 887 0.00 2 887 0 173 0 ~ ~ ~ ~
2020-08-03 23:00 15.1 21.8 14.2 92 ~ ~ 887 0.00 2 887 0 173 0 ~ ~ ~ ~
2020-08-04 00:00 14.3 21.8 14.2 93 ~ ~ 887 0.00 2 887 0 173 0 ~ ~ ~ ~
2020-08-04 01:00 13.7 21.8 13.7 94 ~ ~ 887 0.00 2 887 0 173 0 ~ ~ ~ ~
2020-08-04 02:00 13.6 21.8 13.6 94 ~ ~ 887 0.00 2 887 0 173 0 ~ ~ ~ ~
2020-08-04 03:00 13.4 21.8 13.4 95 ~ ~ 887 0.00 2 887 0 173 0 ~ ~ ~ ~
2020-08-04 04:00 13.4 21.8 13.4 95 ~ ~ 887 0.00 2 887 0 173 0 ~ ~ ~ ~
2020-08-04 05:00 13.4 21.8 13.4 95 ~ ~ 887 0.00 2 887 0 173 0 ~ ~ ~ ~
2020-08-04 06:00 12.9 21.8 12.9 94 ~ ~ 887 0.00 2 887 0 173 0 ~ ~ ~ ~
2020-08-04 07:00 12.5 21.8 12.5 95 ~ ~ 887 0.00 2 887 0 173 0 ~ ~ ~ ~
2020-08-04 08:00 12.3 12.5 12.3 95 ~ ~ 887 0.00 2 887 0 173 0 ~ ~ ~ ~
2020-08-04 09:00 15.3 15.3 12.3 97 ~ ~ 887 0.00 2 887 0 173 0 ~ ~ ~ ~
2020-08-04 10:00 19.3 19.3 12.3 83 ~ ~ 887 0.00 2 887 0 173 2 ~ ~ ~ ~
2020-08-04 11:00 23.3 23.3 12.3 61 ~ ~ 887 0.00 2 887 0 323 2 ~ ~ ~ ~
2020-08-04 12:00 26.8 26.8 12.3 50 ~ ~ 887 0.00 2 887 0 284 2 ~ ~ ~ ~
2020-08-04 13:00 29.6 29.6 12.3 44 ~ ~ 887 0.00 2 887 0 232 3 ~ ~ ~ ~
2020-08-04 14:00 30.9 30.9 12.3 33 ~ ~ 887 0.00 2 887 0 153 3 ~ ~ ~ ~
2020-08-04 15:00 32.9 32.9 12.3 34 ~ ~ 887 0.00 2 887 0 315 5 ~ ~ ~ ~
2020-08-04 16:00 33.6 33.6 12.3 34 ~ ~ 887 0.00 2 887 0 292 5 ~ ~ ~ ~
2020-08-04 17:00 32.3 33.6 12.3 49 ~ ~ 887 0.00 2 887 0 282 2 ~ ~ ~ ~
2020-08-04 18:00 25.8 33.6 12.3 58 ~ ~ 887 0.00 2 887 0 282 0 ~ ~ ~ ~
2020-08-04 19:00 21.9 33.6 12.3 67 ~ ~ 887 0.00 2 887 0 282 0 ~ ~ ~ ~
2020-08-04 20:00 19.6 33.6 12.3 75 ~ ~ 887 0.00 2 887 0 282 0 ~ ~ ~ ~
2020-08-04 21:00 18.1 33.6 12.3 80 ~ ~ 887 0.00 2 887 0 282 0 ~ ~ ~ ~
2020-08-04 22:00 16.9 33.6 12.3 83 ~ ~ 887 0.00 2 887 0 282 0 ~ ~ ~ ~
2020-08-04 23:00 16.0 33.6 12.3 85 ~ ~ 887 0.00 2 887 0 282 0 ~ ~ ~ ~
2020-08-05 00:00 15.2 33.6 12.3 86 ~ ~ 887 0.00 2 887 0 282 0 ~ ~ ~ ~
2020-08-05 01:00 14.6 33.6 12.3 87 ~ ~ 887 0.00 2 887 0 282 0 ~ ~ ~ ~
2020-08-05 02:00 13.9 33.6 12.3 89 ~ ~ 887 0.00 2 887 0 282 0 ~ ~ ~ ~
2020-08-05 03:00 13.4 33.6 12.3 90 ~ ~ 887 0.00 2 887 0 282 0 ~ ~ ~ ~
2020-08-05 04:00 13.2 33.6 12.3 91 ~ ~ 887 0.00 2 887 0 282 0 ~ ~ ~ ~
2020-08-05 05:00 12.6 33.6 12.3 92 ~ ~ 887 0.00 2 887 0 282 0 ~ ~ ~ ~
2020-08-05 06:00 12.1 33.6 12.1 92 ~ ~ 887 0.00 2 887 0 282 0 ~ ~ ~ ~
2020-08-05 07:00 12.2 33.6 12.1 93 ~ ~ 887 0.00 2 887 0 282 0 ~ ~ ~ ~
2020-08-05 08:00 12.6 12.6 12.2 94 ~ ~ 887 0.00 2 887 0 282 0 ~ ~ ~ ~
2020-08-05 09:00 15.9 15.9 12.2 93 ~ ~ 887 0.00 2 887 0 282 0 ~ ~ ~ ~
2020-08-05 10:00 20.8 20.8 12.2 68 ~ ~ 887 0.00 2 887 0 282 3 ~ ~ ~ ~
2020-08-05 11:00 25.1 25.1 12.2 58 ~ ~ 887 0.00 2 887 0 291 5 ~ ~ ~ ~
2020-08-05 12:00 28.2 28.2 12.2 45 ~ ~ 887 0.00 2 887 0 146 5 ~ ~ ~ ~
2020-08-05 13:00 30.9 30.9 12.2 46 ~ ~ 887 0.00 2 887 0 223 3 ~ ~ ~ ~
2020-08-05 14:00 31.6 31.6 12.2 39 ~ ~ 887 0.00 2 887 3 290 6 ~ ~ ~ ~
2020-08-05 15:00 33.3 33.3 12.2 35 ~ ~ 887 0.00 2 887 2 294 8 ~ ~ ~ ~
2020-08-05 16:00 31.6 33.3 12.2 40 ~ ~ 887 0.00 1 887 0 309 5 ~ ~ ~ ~
2020-08-05 17:00 31.1 33.3 12.2 50 ~ ~ 887 0.00 1 887 0 22 3 ~ ~ ~ ~
2020-08-05 18:00 27.9 33.3 12.2 59 ~ ~ 887 0.00 1 887 0 157 0 ~ ~ ~ ~
2020-08-05 19:00 24.9 33.3 12.2 62 ~ ~ 887 0.00 1 887 0 77 0 ~ ~ ~ ~
2020-08-05 20:00 22.3 33.3 12.2 68 ~ ~ 887 0.00 1 887 0 121 0 ~ ~ ~ ~
2020-08-05 21:00 20.3 33.3 12.2 76 ~ ~ 887 0.00 1 887 0 121 0 ~ ~ ~ ~
2020-08-05 22:00 19.0 33.3 12.2 78 ~ ~ 887 0.00 0 887 0 121 0 ~ ~ ~ ~
2020-08-05 23:00 18.4 33.3 12.2 80 ~ ~ 887 0.00 0 887 0 121 0 ~ ~ ~ ~
2020-08-06 00:00 17.4 33.3 12.2 82 ~ ~ 887 0.00 0 887 0 121 0 ~ ~ ~ ~
2020-08-06 01:00 16.7 33.3 12.2 83 ~ ~ 887 0.00 0 887 0 121 0 ~ ~ ~ ~
2020-08-06 02:00 16.3 33.3 12.2 83 ~ ~ 887 0.00 0 887 0 121 0 ~ ~ ~ ~
2020-08-06 03:00 16.2 33.3 12.2 86 ~ ~ 887 0.00 0 887 0 146 6 ~ ~ ~ ~
2020-08-06 04:00 16.4 33.3 12.2 92 ~ ~ 887 0.25 1 887 0 160 6 ~ ~ ~ ~
2020-08-06 05:00 15.8 33.3 12.2 93 ~ ~ 890 2.54 3 890 0 190 0 ~ ~ ~ ~
2020-08-06 06:00 15.3 33.3 12.2 94 ~ ~ 891 0.76 4 891 0 154 0 ~ ~ ~ ~
2020-08-06 07:00 15.4 33.3 12.2 96 ~ ~ 891 0.00 4 891 0 154 0 ~ ~ ~ ~
2020-08-06 08:00 15.3 15.4 15.3 95 ~ ~ 891 0.00 4 891 0 154 0 ~ ~ ~ ~
2020-08-06 09:00 15.3 15.4 15.3 95 ~ ~ 891 0.00 4 891 2 155 6 ~ ~ ~ ~
2020-08-06 10:00 15.7 15.7 15.3 93 ~ ~ 891 0.00 4 891 0 217 2 ~ ~ ~ ~
2020-08-06 11:00 18.4 18.4 15.3 83 ~ ~ 891 0.00 4 891 0 217 5 ~ ~ ~ ~